createdAt,value
2023-02-12T00:00:42.921Z,42.67
2023-02-12T00:03:09.295Z,44.78
2023-02-12T00:05:44.355Z,44.50
2023-02-12T00:08:14.503Z,44.67
2023-02-12T00:10:42.915Z,44.30
2023-02-12T00:13:10.731Z,43.75
2023-02-12T00:15:42.478Z,43.78
2023-02-12T00:18:09.027Z,42.67
2023-02-12T00:20:36.312Z,43.50
2023-02-12T00:23:03.002Z,44.90
2023-02-12T00:25:29.326Z,44.38
2023-02-12T00:27:55.945Z,44.03
2023-02-12T00:30:22.369Z,40.08
2023-02-12T00:32:48.738Z,42.30
2023-02-12T00:35:16.230Z,44.65
2023-02-12T00:37:42.751Z,42.00
2023-02-12T00:40:10.090Z,40.78
2023-02-12T00:42:36.408Z,42.58
2023-02-12T00:45:02.764Z,40.95
2023-02-12T00:47:29.333Z,42.00
2023-02-12T00:49:55.679Z,42.72
2023-02-12T00:52:22.030Z,43.78
2023-02-12T00:54:48.569Z,41.97
2023-02-12T00:57:14.944Z,43.22
2023-02-12T00:59:42.802Z,43.45
2023-02-12T01:02:09.330Z,39.33
2023-02-12T01:04:35.998Z,41.05
2023-02-12T01:07:02.640Z,41.47
2023-02-12T01:09:29.353Z,38.20
2023-02-12T01:11:55.689Z,40.90
2023-02-12T01:14:22.175Z,42.28
2023-02-12T01:16:48.514Z,39.83
2023-02-12T01:19:15.422Z,39.08
2023-02-12T01:21:42.013Z,41.78
2023-02-12T01:24:08.453Z,41.03
2023-02-12T01:26:34.915Z,38.20
2023-02-12T01:29:04.330Z,40.80
2023-02-12T01:31:33.383Z,39.85
2023-02-12T01:34:01.022Z,41.45
2023-02-12T01:36:29.726Z,41.47
2023-02-12T01:38:57.782Z,39.00
2023-02-12T01:41:27.962Z,39.05
2023-02-12T01:44:20.996Z,38.50
2023-02-12T01:46:59.609Z,39.95
2023-02-12T01:49:43.304Z,38.72
2023-02-12T01:52:27.506Z,37.90
2023-02-12T01:54:58.384Z,39.05
2023-02-12T01:57:26.773Z,38.95
2023-02-12T01:59:56.416Z,37.80
2023-02-12T02:02:22.868Z,34.60
2023-02-12T02:05:02.315Z,34.72
2023-02-12T02:07:29.580Z,36.10
2023-02-12T02:09:57.426Z,39.35
2023-02-12T02:12:44.288Z,38.33
2023-02-12T02:15:11.261Z,38.72
2023-02-12T02:17:58.104Z,38.65
2023-02-12T02:21:02.192Z,35.15
2023-02-12T02:23:34.470Z,38.80
2023-02-12T02:26:25.663Z,39.28
2023-02-12T02:29:14.876Z,38.80
2023-02-12T02:31:44.698Z,38.40
2023-02-12T02:34:23.175Z,37.90
2023-02-12T02:39:48.763Z,34.75
2023-02-12T02:42:22.338Z,37.92
2023-02-12T02:44:54.018Z,35.30
2023-02-12T02:47:26.668Z,37.72
2023-02-12T02:50:08.089Z,36.75
2023-02-12T02:52:47.579Z,37.33
2023-02-12T02:55:18.685Z,37.25
2023-02-12T02:57:51.665Z,35.50
2023-02-12T03:00:23.192Z,35.13
2023-02-12T03:02:56.372Z,35.75
2023-02-12T03:05:30.240Z,36.55
2023-02-12T03:08:03.868Z,35.13
2023-02-12T03:10:38.939Z,35.25
2023-02-12T03:13:37.850Z,35.10
2023-02-12T03:16:09.898Z,33.05
2023-02-12T03:18:54.473Z,31.52
2023-02-12T03:21:30.654Z,34.35
2023-02-12T03:24:21.886Z,35.25
2023-02-12T03:26:59.326Z,31.65
2023-02-12T03:29:26.535Z,34.50
2023-02-12T03:32:30.678Z,33.45
2023-02-12T03:35:15.422Z,32.22
2023-02-12T03:37:51.374Z,33.33
2023-02-12T03:40:23.687Z,34.38
2023-02-12T03:43:09.277Z,34.40
2023-02-12T03:45:44.919Z,35.25
2023-02-12T03:48:20.148Z,34.42
2023-02-12T03:51:15.834Z,34.00
2023-02-12T03:53:44.298Z,34.03
2023-02-12T03:56:16.029Z,34.65
2023-02-12T03:58:44.121Z,35.08
2023-02-12T04:01:12.005Z,36.22
2023-02-12T04:03:39.181Z,34.90
2023-02-12T04:06:05.902Z,36.20
2023-02-12T04:08:33.119Z,36.78
2023-02-12T04:11:25.943Z,36.28
2023-02-12T04:14:07.266Z,36.05
2023-02-12T04:16:52.158Z,36.10
2023-02-12T04:19:30.222Z,36.17
2023-02-12T04:22:15.179Z,34.47
2023-02-12T04:25:06.961Z,34.40
2023-02-12T04:27:54.475Z,33.22
2023-02-12T04:30:27.781Z,34.17
2023-02-12T04:33:00.690Z,35.47
2023-02-12T04:35:40.904Z,36.22
2023-02-12T04:38:42.501Z,36.22
2023-02-12T04:41:09.486Z,34.53
2023-02-12T04:43:37.262Z,35.78
2023-02-12T04:46:05.820Z,35.97
2023-02-12T04:51:01.314Z,32.38
2023-02-12T04:53:27.821Z,34.92
2023-02-12T04:55:55.451Z,33.63
2023-02-12T04:58:22.200Z,35.50
2023-02-12T05:00:48.536Z,33.90
2023-02-12T05:03:15.118Z,35.25
2023-02-12T05:05:42.441Z,37.35
2023-02-12T05:08:09.010Z,35.70
2023-02-12T05:10:35.588Z,34.25
2023-02-12T05:13:02.176Z,37.10
2023-02-12T05:15:28.804Z,37.33
2023-02-12T05:17:55.182Z,36.50
2023-02-12T05:20:21.668Z,35.13
2023-02-12T05:22:52.069Z,36.67
2023-02-12T05:25:18.649Z,33.50
2023-02-12T05:27:45.045Z,34.00
2023-02-12T05:30:12.020Z,35.65
2023-02-12T05:32:39.449Z,34.67
2023-02-12T05:35:06.497Z,35.38
2023-02-12T05:37:36.083Z,33.78
2023-02-12T05:40:05.191Z,33.78
2023-02-12T05:42:31.483Z,36.63
2023-02-12T05:44:57.942Z,35.10
2023-02-12T05:47:24.360Z,36.38
2023-02-12T05:49:50.910Z,36.60
2023-02-12T05:52:17.297Z,34.88
2023-02-12T05:54:43.757Z,35.08
2023-02-12T05:57:10.116Z,36.30
2023-02-12T05:59:36.598Z,35.90
2023-02-12T06:02:03.089Z,35.42
2023-02-12T06:04:30.497Z,35.83
2023-02-12T06:06:57.065Z,35.35
2023-02-12T06:09:24.575Z,37.70
2023-02-12T06:11:51.488Z,33.35
2023-02-12T06:14:20.626Z,34.22
2023-02-12T06:16:49.096Z,35.85
2023-02-12T06:19:16.137Z,35.50
2023-02-12T06:21:42.857Z,34.35
2023-02-12T06:24:11.878Z,32.92
2023-02-12T06:26:38.192Z,34.65
2023-02-12T06:29:04.539Z,33.05
2023-02-12T06:31:33.767Z,33.88
2023-02-12T06:34:03.865Z,33.85
2023-02-12T06:36:30.662Z,29.95
2023-02-12T06:38:57.045Z,31.95
2023-02-12T06:41:24.120Z,34.13
2023-02-12T06:43:50.658Z,34.13
2023-02-12T06:46:17.941Z,35.78
2023-02-12T06:48:44.360Z,36.13
2023-02-12T06:51:13.763Z,35.97
2023-02-12T06:53:40.813Z,30.75
2023-02-12T06:56:13.128Z,31.95
2023-02-12T06:58:41.875Z,32.47
2023-02-12T07:03:41.499Z,29.23
2023-02-12T07:06:08.800Z,32.05
2023-02-12T07:08:35.166Z,30.50
2023-02-12T07:11:01.759Z,30.02
2023-02-12T07:13:28.322Z,34.28
2023-02-12T07:15:55.591Z,34.58
2023-02-12T07:18:22.147Z,34.75
2023-02-12T07:20:48.710Z,30.58
2023-02-12T07:23:15.085Z,36.55
2023-02-12T07:25:41.419Z,35.58
2023-02-12T07:28:07.781Z,33.78
2023-02-12T07:30:34.178Z,32.97
2023-02-12T07:33:00.601Z,34.35
2023-02-12T07:35:27.178Z,34.38
2023-02-12T07:37:53.479Z,32.95
2023-02-12T07:40:19.960Z,34.75
2023-02-12T07:42:47.248Z,34.42
2023-02-12T07:45:13.620Z,35.40
2023-02-12T07:47:40.768Z,34.47
2023-02-12T07:50:07.868Z,33.97
2023-02-12T07:52:34.420Z,31.98
2023-02-12T07:55:02.010Z,30.88
2023-02-12T07:57:28.366Z,32.47
2023-02-12T07:59:54.963Z,32.97
2023-02-12T08:02:21.616Z,33.83
2023-02-12T08:04:48.200Z,33.35
2023-02-12T08:07:14.680Z,34.60
2023-02-12T08:09:41.219Z,33.45
2023-02-12T08:12:07.980Z,33.20
2023-02-12T08:14:34.549Z,33.22
2023-02-12T08:17:00.921Z,33.67
2023-02-12T08:19:27.270Z,35.35
2023-02-12T08:21:55.421Z,35.13
2023-02-12T08:24:22.073Z,33.50
2023-02-12T08:26:50.856Z,36.65
2023-02-12T08:29:20.281Z,35.78
2023-02-12T08:31:49.445Z,36.75
2023-02-12T08:34:17.629Z,36.92
2023-02-12T08:36:44.489Z,37.53
2023-02-12T08:39:11.590Z,35.10
2023-02-12T08:41:38.226Z,35.95
2023-02-12T08:44:05.512Z,33.63
2023-02-12T08:46:35.280Z,36.63
2023-02-12T08:49:07.411Z,34.83
2023-02-12T08:51:36.062Z,36.05
2023-02-12T08:54:06.481Z,37.00
2023-02-12T08:56:35.433Z,37.17
2023-02-12T08:59:04.646Z,35.80
2023-02-12T09:01:34.002Z,36.75
2023-02-12T09:04:01.090Z,35.78
2023-02-12T09:06:28.738Z,37.20
2023-02-12T09:08:55.822Z,36.10
2023-02-12T09:11:30.291Z,35.70
2023-02-12T09:13:59.580Z,35.47
2023-02-12T09:16:27.470Z,35.15
2023-02-12T09:18:55.116Z,35.47
2023-02-12T09:21:22.242Z,36.60
2023-02-12T09:23:48.912Z,35.13
2023-02-12T09:26:18.237Z,35.78
2023-02-12T09:28:44.581Z,34.05
2023-02-12T09:31:17.808Z,34.10
2023-02-12T09:33:44.445Z,35.40
2023-02-12T09:36:15.726Z,32.97
2023-02-12T09:38:43.459Z,33.22
2023-02-12T09:41:51.189Z,32.55
2023-02-12T09:44:22.967Z,32.17
2023-02-12T09:47:17.209Z,33.30
2023-02-12T09:50:13.797Z,31.13
2023-02-12T09:52:41.430Z,28.17
2023-02-12T09:55:14.148Z,31.27
2023-02-12T09:57:42.320Z,32.00
2023-02-12T10:00:10.991Z,31.73
2023-02-12T10:02:39.373Z,32.50
2023-02-12T10:05:16.225Z,31.10
2023-02-12T10:08:01.130Z,31.02
2023-02-12T10:10:48.315Z,32.72
2023-02-12T10:13:22.181Z,31.83
2023-02-12T10:16:13.075Z,31.55
2023-02-12T10:18:51.952Z,31.48
2023-02-12T10:21:36.990Z,30.52
2023-02-12T10:24:21.912Z,31.00
2023-02-12T10:26:49.770Z,29.65
2023-02-12T10:29:17.814Z,31.98
2023-02-12T10:31:50.789Z,30.55
2023-02-12T10:34:22.122Z,30.40
2023-02-12T10:36:52.733Z,31.08
2023-02-12T10:39:24.727Z,30.70
2023-02-12T10:42:21.774Z,29.73
2023-02-12T10:44:48.247Z,27.90
2023-02-12T10:47:23.570Z,28.55
2023-02-12T10:50:01.617Z,24.60
2023-02-12T10:52:47.214Z,26.27
2023-02-12T10:55:32.449Z,23.58
2023-02-12T10:58:00.359Z,26.08
2023-02-12T11:00:40.748Z,24.73
2023-02-12T11:03:22.383Z,23.70
2023-02-12T11:05:48.942Z,23.02
2023-02-12T11:08:30.508Z,22.48
2023-02-12T11:11:06.026Z,20.52
2023-02-12T11:13:33.668Z,20.92
2023-02-12T11:16:01.742Z,20.30
2023-02-12T11:18:33.122Z,21.33
2023-02-12T11:21:07.319Z,20.98
2023-02-12T11:23:37.863Z,21.90
2023-02-12T11:26:08.030Z,21.95
2023-02-12T11:28:37.010Z,22.10
2023-02-12T11:31:21.633Z,22.90
2023-02-12T11:34:21.140Z,26.00
2023-02-12T11:36:53.290Z,23.65
2023-02-12T11:39:27.834Z,24.13
2023-02-12T11:41:56.996Z,23.42
2023-02-12T11:44:28.511Z,23.88
2023-02-12T11:47:08.819Z,22.20
2023-02-12T11:49:50.108Z,24.45
2023-02-12T11:52:38.023Z,29.85
2023-02-12T11:55:23.234Z,24.63
2023-02-12T11:57:53.881Z,22.92
2023-02-12T12:00:28.785Z,22.30
2023-02-12T12:03:03.159Z,23.80
2023-02-12T12:05:37.777Z,20.92
2023-02-12T12:08:15.961Z,19.45
2023-02-12T12:11:20.780Z,18.63
2023-02-12T12:14:18.518Z,18.17
2023-02-12T12:17:16.666Z,18.67
2023-02-12T12:19:57.335Z,20.50
2023-02-12T12:22:45.280Z,21.05
2023-02-12T12:25:20.990Z,20.30
2023-02-12T12:28:08.226Z,19.83
2023-02-12T12:30:48.414Z,20.20
2023-02-12T12:33:29.607Z,19.80
2023-02-12T12:36:03.816Z,19.48
2023-02-12T12:38:48.243Z,17.88
2023-02-12T12:41:52.883Z,18.63
2023-02-12T12:44:56.975Z,19.55
2023-02-12T12:47:41.433Z,19.00
2023-02-12T12:50:45.310Z,18.98
2023-02-12T12:53:37.067Z,30.80
2023-02-12T12:56:31.574Z,36.67
2023-02-12T12:59:24.253Z,24.30
2023-02-12T13:02:28.425Z,22.42
2023-02-12T13:05:09.317Z,20.00
2023-02-12T13:07:54.254Z,20.23
2023-02-12T13:10:49.688Z,47.60
2023-02-12T13:13:36.011Z,21.88
2023-02-12T13:16:15.357Z,24.27
2023-02-12T13:19:07.503Z,20.83
2023-02-12T13:21:47.895Z,19.35
2023-02-12T13:24:29.447Z,19.27
2023-02-12T13:27:02.695Z,17.05
2023-02-12T13:29:40.214Z,17.20
2023-02-12T13:32:34.468Z,18.27
2023-02-12T13:35:05.175Z,15.38
2023-02-12T13:37:36.881Z,16.42
2023-02-12T13:40:08.513Z,16.33
2023-02-12T13:42:48.104Z,16.70
2023-02-12T13:45:20.461Z,16.90
2023-02-12T13:48:05.591Z,16.25
2023-02-12T13:50:40.647Z,16.35
2023-02-12T13:53:41.640Z,15.45
2023-02-12T13:56:55.789Z,15.48
2023-02-12T13:59:31.746Z,15.40
2023-02-12T14:02:38.630Z,15.68
2023-02-12T14:05:19.879Z,16.20
2023-02-12T14:07:50.476Z,15.60
2023-02-12T14:10:44.330Z,15.98
2023-02-12T14:13:17.468Z,16.42
2023-02-12T14:15:51.054Z,16.17
2023-02-12T14:18:35.933Z,15.73
2023-02-12T14:21:17.474Z,15.18
2023-02-12T14:23:46.068Z,15.90
2023-02-12T14:26:18.243Z,17.13
2023-02-12T14:28:54.868Z,17.85
2023-02-12T14:31:21.694Z,15.32
2023-02-12T14:33:51.609Z,16.15
2023-02-12T14:36:40.681Z,15.35
2023-02-12T14:39:23.537Z,15.40
2023-02-12T14:41:53.333Z,15.70
2023-02-12T14:44:30.695Z,16.45
2023-02-12T14:46:59.178Z,17.33
2023-02-12T14:49:33.150Z,16.42
2023-02-12T14:52:18.339Z,17.80
2023-02-12T14:54:59.785Z,17.95
2023-02-12T14:57:30.472Z,17.90
2023-02-12T15:00:18.220Z,16.45
2023-02-12T15:03:00.370Z,18.40
2023-02-12T15:05:41.382Z,18.52
2023-02-12T15:08:32.438Z,20.42
2023-02-12T15:11:22.854Z,21.33
2023-02-12T15:13:54.256Z,27.58
2023-02-12T15:16:34.765Z,27.60
2023-02-12T15:19:18.618Z,28.20
2023-02-12T15:21:46.420Z,26.60
2023-02-12T15:24:20.493Z,26.35
2023-02-12T15:26:54.285Z,25.23
2023-02-12T15:29:28.068Z,26.77
2023-02-12T15:32:00.903Z,25.13
2023-02-12T15:34:30.971Z,25.00
2023-02-12T15:37:01.454Z,25.10
2023-02-12T15:39:51.540Z,25.75
2023-02-12T15:42:36.369Z,24.88
2023-02-12T15:45:31.935Z,24.83
2023-02-12T15:48:18.522Z,23.52
2023-02-12T15:50:55.742Z,24.02
2023-02-12T15:53:30.221Z,23.80
2023-02-12T15:56:01.136Z,24.42
2023-02-12T15:58:48.163Z,23.45
2023-02-12T16:01:42.281Z,22.88
2023-02-12T16:04:09.932Z,21.40
2023-02-12T16:06:38.446Z,22.07
2023-02-12T16:09:11.252Z,20.33
2023-02-12T16:11:38.864Z,21.70
2023-02-12T16:14:18.873Z,20.23
2023-02-12T16:16:52.824Z,20.92
2023-02-12T16:19:38.757Z,22.60
2023-02-12T16:22:10.353Z,22.40
2023-02-12T16:24:47.102Z,21.00
2023-02-12T16:27:37.810Z,20.92
2023-02-12T16:30:23.108Z,22.55
2023-02-12T16:32:49.976Z,20.55
2023-02-12T16:35:16.281Z,21.77
2023-02-12T16:37:55.881Z,21.58
2023-02-12T16:40:26.540Z,22.15
2023-02-12T16:43:06.185Z,21.42
2023-02-12T16:45:36.733Z,21.90
2023-02-12T16:48:09.082Z,22.55
2023-02-12T16:50:39.358Z,23.48
2023-02-12T16:53:09.114Z,24.65
2023-02-12T16:55:37.093Z,24.73
2023-02-12T16:58:03.721Z,22.77
2023-02-12T17:00:30.214Z,22.80
2023-02-12T17:02:57.463Z,22.02
2023-02-12T17:05:24.627Z,23.23
2023-02-12T17:07:51.101Z,23.63
2023-02-12T17:10:18.187Z,23.90
2023-02-12T17:12:53.902Z,22.05
2023-02-12T17:15:29.454Z,24.52
2023-02-12T17:17:56.052Z,24.20
2023-02-12T17:20:24.648Z,24.58
2023-02-12T17:25:20.010Z,21.60
2023-02-12T17:27:47.213Z,26.73
2023-02-12T17:30:20.735Z,23.88
2023-02-12T17:32:49.614Z,25.92
2023-02-12T17:35:16.883Z,24.92
2023-02-12T17:37:43.253Z,24.73
2023-02-12T17:40:11.813Z,23.90
2023-02-12T17:45:05.059Z,23.45
2023-02-12T17:47:31.499Z,25.17
2023-02-12T17:50:00.376Z,25.83
2023-02-12T17:52:26.780Z,25.38
2023-02-12T17:54:53.088Z,25.55
2023-02-12T17:57:19.417Z,23.83
2023-02-12T17:59:45.797Z,24.80
2023-02-12T18:02:12.524Z,24.52
2023-02-12T18:04:39.255Z,23.23
2023-02-12T18:07:06.226Z,24.00
2023-02-12T18:09:33.220Z,22.10
2023-02-12T18:11:59.775Z,21.38
2023-02-12T18:14:26.309Z,20.65
2023-02-12T18:16:54.330Z,22.15
2023-02-12T18:19:20.739Z,22.05
2023-02-12T18:21:47.628Z,21.63
2023-02-12T18:24:14.312Z,20.75
2023-02-12T18:26:42.226Z,19.52
2023-02-12T18:29:08.588Z,19.33
2023-02-12T18:31:35.388Z,18.27
2023-02-12T18:34:01.998Z,17.77
2023-02-12T18:36:28.702Z,18.90
2023-02-12T18:38:55.064Z,18.65
2023-02-12T18:41:24.248Z,19.63
2023-02-12T18:43:50.975Z,17.73
2023-02-12T18:46:20.979Z,17.05
2023-02-12T18:48:47.994Z,16.70
2023-02-12T18:51:18.426Z,16.30
2023-02-12T18:53:46.524Z,15.70
2023-02-12T18:56:13.406Z,16.02
2023-02-12T18:58:42.865Z,15.68
2023-02-12T19:01:17.812Z,15.75
2023-02-12T19:03:45.819Z,16.20
2023-02-12T19:06:12.612Z,16.30
2023-02-12T19:08:39.092Z,15.75
2023-02-12T19:11:09.641Z,16.02
2023-02-12T19:13:36.302Z,16.67
2023-02-12T19:16:14.360Z,16.25
2023-02-12T19:18:40.986Z,16.27
2023-02-12T19:21:09.598Z,17.15
2023-02-12T19:26:12.611Z,16.33
2023-02-12T19:28:39.849Z,16.90
2023-02-12T19:31:26.933Z,17.10
2023-02-12T19:33:59.975Z,14.80
2023-02-12T19:36:29.229Z,16.17
2023-02-12T19:38:56.224Z,16.30
2023-02-12T19:41:25.402Z,16.80
2023-02-12T19:43:58.307Z,16.33
2023-02-12T19:46:26.717Z,18.15
2023-02-12T19:48:59.961Z,18.52
2023-02-12T19:51:29.712Z,19.58
2023-02-12T19:54:02.098Z,19.17
2023-02-12T19:56:28.580Z,17.80
2023-02-12T19:58:59.547Z,17.70
2023-02-12T20:01:27.317Z,18.15
2023-02-12T20:03:54.514Z,16.88
2023-02-12T20:06:27.303Z,17.20
2023-02-12T20:08:54.068Z,17.17
2023-02-12T20:11:22.972Z,18.15
2023-02-12T20:13:49.808Z,19.00
2023-02-12T20:16:19.467Z,17.95
2023-02-12T20:18:48.224Z,17.30
2023-02-12T20:21:18.182Z,16.63
2023-02-12T20:23:44.554Z,18.42
2023-02-12T20:26:13.955Z,17.17
2023-02-12T20:28:43.102Z,18.55
2023-02-12T20:31:15.337Z,17.48
2023-02-12T20:33:42.159Z,17.98
2023-02-12T20:36:09.573Z,16.80
2023-02-12T20:38:36.050Z,18.08
2023-02-12T20:41:04.078Z,18.20
2023-02-12T20:43:32.082Z,19.02
2023-02-12T20:46:14.346Z,17.67
2023-02-12T20:48:41.671Z,20.70
2023-02-12T20:51:17.974Z,19.90
2023-02-12T20:53:44.903Z,21.63
2023-02-12T20:56:14.285Z,20.73
2023-02-12T20:58:44.720Z,19.65
2023-02-12T21:01:14.864Z,20.60
2023-02-12T21:03:41.632Z,22.10
2023-02-12T21:06:08.299Z,21.35
2023-02-12T21:08:39.479Z,22.50
2023-02-12T21:11:14.718Z,23.45
2023-02-12T21:13:58.447Z,23.23
2023-02-12T21:16:28.538Z,22.85
2023-02-12T21:18:56.046Z,21.33
2023-02-12T21:21:25.047Z,21.67
2023-02-12T21:23:53.767Z,21.52
2023-02-12T21:26:24.054Z,23.35
2023-02-12T21:28:51.836Z,23.83
2023-02-12T21:31:29.301Z,22.50
2023-02-12T21:33:57.814Z,22.58
2023-02-12T21:36:29.542Z,21.80
2023-02-12T21:38:56.031Z,23.95
2023-02-12T21:41:24.469Z,24.85
2023-02-12T21:43:53.809Z,24.83
2023-02-12T21:46:22.406Z,24.30
2023-02-12T21:48:50.353Z,22.65
2023-02-12T21:51:29.209Z,22.50
2023-02-12T21:54:01.235Z,22.58
2023-02-12T21:56:28.054Z,21.60
2023-02-12T21:58:55.840Z,22.67
2023-02-12T22:01:26.142Z,21.50
2023-02-12T22:03:52.638Z,22.13
2023-02-12T22:06:21.963Z,23.25
2023-02-12T22:08:50.090Z,23.30
2023-02-12T22:11:17.442Z,21.10
2023-02-12T22:13:44.089Z,20.98
2023-02-12T22:16:13.417Z,21.50
2023-02-12T22:18:40.808Z,21.20
2023-02-12T22:21:12.772Z,22.63
2023-02-12T22:23:39.817Z,22.00
2023-02-12T22:26:15.129Z,22.45
2023-02-12T22:28:46.881Z,23.73
2023-02-12T22:31:19.341Z,23.08
2023-02-12T22:33:47.241Z,22.75
2023-02-12T22:36:14.476Z,23.35
2023-02-12T22:38:41.343Z,22.58
2023-02-12T22:41:09.157Z,23.60
2023-02-12T22:43:37.920Z,22.25
2023-02-12T22:46:05.253Z,23.02
2023-02-12T22:48:32.061Z,23.58
2023-02-12T22:50:59.261Z,21.38
2023-02-12T22:53:26.874Z,21.27
2023-02-12T22:55:53.428Z,21.38
2023-02-12T22:58:19.818Z,19.92
2023-02-12T23:00:46.186Z,21.17
2023-02-12T23:03:12.788Z,21.00
2023-02-12T23:05:39.443Z,19.80
2023-02-12T23:08:06.569Z,21.58
2023-02-12T23:10:33.373Z,20.25
2023-02-12T23:13:02.334Z,20.40
2023-02-12T23:15:29.715Z,18.52
2023-02-12T23:17:56.180Z,18.50
2023-02-12T23:20:22.952Z,18.60
2023-02-12T23:22:49.318Z,19.40
2023-02-12T23:25:15.985Z,18.52
2023-02-12T23:27:42.481Z,18.77
2023-02-12T23:30:09.510Z,17.52
2023-02-12T23:32:36.123Z,18.00
2023-02-12T23:35:02.701Z,18.38
2023-02-12T23:37:29.001Z,18.83
2023-02-12T23:39:55.382Z,19.98
2023-02-12T23:42:21.710Z,19.70
2023-02-12T23:44:48.419Z,17.95
2023-02-12T23:47:14.779Z,17.63
2023-02-12T23:49:41.339Z,17.33
2023-02-12T23:52:07.987Z,19.00
2023-02-12T23:54:34.411Z,18.83
2023-02-12T23:57:00.734Z,19.92
2023-02-12T23:59:27.125Z,21.08
